Time;durP1;ratioP1;P1;durP2;ratioP2;P2;SDS_P1;SDS_P2;PMS_P1;PMS_P2;Temp;Humidity;BMP_temperature;BMP_pressure;BME280_temperature;BME280_humidity;BME280_pressure;Samples;Min_cycle;Max_cycle;Signal;HPM_P1;HPM_P2
2024/01/21 00:01:34;;;;;;;6.63;2.90;;;3.40;99.90;;;;;;6343863;22;20055;-86
2024/01/21 00:04:00;;;;;;;10.00;3.05;;;3.40;99.90;;;;;;6343469;22;20006;-86
2024/01/21 00:06:25;;;;;;;9.30;3.17;;;3.40;99.90;;;;;;6343275;22;20559;-87
2024/01/21 00:08:51;;;;;;;6.13;2.40;;;3.40;99.90;;;;;;6343301;22;20333;-87
2024/01/21 00:11:17;;;;;;;12.27;3.38;;;3.40;99.90;;;;;;6343131;22;20041;-88
2024/01/21 00:13:42;;;;;;;8.00;3.17;;;3.50;99.90;;;;;;6343246;22;20013;-87
2024/01/21 00:16:08;;;;;;;14.40;3.67;;;3.50;99.90;;;;;;6343801;22;20444;-88
2024/01/21 00:18:35;;;;;;;7.47;3.58;;;3.50;99.90;;;;;;6343596;22;20082;-87
2024/01/21 00:21:01;;;;;;;9.50;3.25;;;3.60;99.90;;;;;;6342342;22;20097;-88
2024/01/21 00:23:30;;;;;;;12.93;3.38;;;3.60;99.90;;;;;;6341508;22;19998;-88
2024/01/21 00:25:59;;;;;;;5.82;2.00;;;3.60;99.90;;;;;;6342862;22;20378;-89
2024/01/21 00:28:25;;;;;;;11.73;3.60;;;3.70;99.90;;;;;;6342302;22;20002;-87
2024/01/21 00:30:51;;;;;;;5.63;2.60;;;3.70;99.90;;;;;;6342292;22;20005;-89
2024/01/21 00:33:17;;;;;;;7.05;2.92;;;3.70;99.90;;;;;;6343662;22;20196;-88
2024/01/21 00:35:42;;;;;;;11.10;3.88;;;3.80;99.90;;;;;;6343333;22;20008;-88
2024/01/21 00:38:08;;;;;;;7.35;2.88;;;3.80;99.90;;;;;;6343420;22;20081;-88
2024/01/21 00:40:34;;;;;;;10.90;2.80;;;3.80;99.90;;;;;;6343832;22;20326;-88
2024/01/21 00:43:00;;;;;;;10.00;3.72;;;3.80;99.90;;;;;;6343510;22;20093;-87
2024/01/21 00:45:26;;;;;;;6.97;3.30;;;3.90;99.90;;;;;;6340924;22;20437;-88
2024/01/21 00:47:52;;;;;;;9.13;3.25;;;3.90;99.90;;;;;;6342937;22;20002;-88
2024/01/21 00:50:17;;;;;;;8.73;3.35;;;3.90;99.90;;;;;;6342527;22;20007;-87
2024/01/21 00:52:43;;;;;;;8.35;3.25;;;3.90;99.90;;;;;;6342964;22;19998;-88
2024/01/21 00:55:09;;;;;;;9.27;4.10;;;3.90;99.90;;;;;;6343032;22;20469;-88
2024/01/21 00:57:35;;;;;;;8.80;3.55;;;3.90;99.90;;;;;;6343433;22;20010;-86
2024/01/21 01:00:00;;;;;;;6.75;3.60;;;3.90;99.90;;;;;;6342862;22;20010;-86
2024/01/21 01:02:26;;;;;;;5.13;2.85;;;4.00;99.90;;;;;;6344101;22;20002;-89
2024/01/21 01:04:58;;;;;;;6.65;3.30;;;4.00;99.90;;;;;;6343823;22;20010;-88
2024/01/21 01:07:25;;;;;;;8.57;3.45;;;4.00;99.90;;;;;;6343481;22;20423;-88
2024/01/21 01:09:50;;;;;;;7.35;3.10;;;4.00;99.90;;;;;;6342785;22;20013;-87
2024/01/21 01:12:16;;;;;;;17.13;3.78;;;4.00;99.90;;;;;;6341609;22;20002;-88
2024/01/21 01:14:42;;;;;;;12.45;5.18;;;4.10;99.90;;;;;;6341594;22;20010;-86
2024/01/21 01:17:08;;;;;;;9.80;3.45;;;4.10;99.90;;;;;;6342098;22;20003;-87
2024/01/21 01:19:34;;;;;;;5.45;2.88;;;4.10;99.90;;;;;;6342866;22;20014;-87
2024/01/21 01:22:01;;;;;;;8.85;2.60;;;4.10;99.90;;;;;;6343888;22;20066;-88
2024/01/21 01:24:26;;;;;;;12.52;3.70;;;4.20;99.90;;;;;;6371107;22;20010;-87
2024/01/21 01:26:52;;;;;;;11.05;2.88;;;4.20;99.90;;;;;;6343384;22;20005;-89
2024/01/21 01:29:18;;;;;;;12.13;3.60;;;4.20;99.90;;;;;;6343034;22;20012;-89
2024/01/21 01:31:43;;;;;;;15.73;3.47;;;4.20;99.90;;;;;;6343178;22;20020;-88
2024/01/21 01:34:11;;;;;;;7.35;3.45;;;4.20;99.90;;;;;;6343023;22;20374;-89
2024/01/21 01:36:36;;;;;;;8.93;4.32;;;4.20;99.90;;;;;;6343581;22;20012;-88
2024/01/21 01:39:02;;;;;;;12.23;3.10;;;4.30;99.90;;;;;;6343110;22;20093;-88
2024/01/21 01:41:28;;;;;;;7.45;3.50;;;4.30;99.90;;;;;;6343142;22;20006;-86
2024/01/21 01:43:54;;;;;;;8.00;2.90;;;4.30;99.90;;;;;;6342814;22;20418;-89
2024/01/21 01:46:19;;;;;;;9.38;3.25;;;4.30;99.90;;;;;;6343294;22;20451;-87
2024/01/21 01:48:45;;;;;;;12.77;3.70;;;4.30;99.90;;;;;;6343284;22;20006;-87
2024/01/21 01:51:11;;;;;;;9.13;3.00;;;4.30;99.90;;;;;;6342873;22;20315;-88
2024/01/21 01:53:37;;;;;;;8.32;2.25;;;4.40;99.90;;;;;;6342543;22;20002;-87
2024/01/21 01:56:03;;;;;;;6.22;3.25;;;4.40;99.90;;;;;;6335911;22;20007;-88
2024/01/21 01:58:29;;;;;;;7.90;2.88;;;4.40;99.90;;;;;;6311437;22;20319;-88
2024/01/21 02:00:56;;;;;;;6.13;2.55;;;4.40;99.90;;;;;;6311517;22;20034;-88
2024/01/21 02:03:23;;;;;;;4.53;2.63;;;4.40;99.90;;;;;;6311561;22;20011;-88
2024/01/21 02:05:49;;;;;;;10.18;3.42;;;4.50;99.90;;;;;;6311554;22;20012;-87
2024/01/21 02:08:15;;;;;;;6.78;3.20;;;4.50;99.90;;;;;;6311336;22;20014;-88
2024/01/21 02:10:40;;;;;;;10.25;2.63;;;4.50;99.90;;;;;;6311575;22;20009;-88
2024/01/21 02:13:06;;;;;;;4.97;2.20;;;4.50;99.90;;;;;;6311797;22;20014;-90
2024/01/21 02:15:32;;;;;;;6.38;2.88;;;4.60;99.90;;;;;;6311560;22;20510;-87
2024/01/21 02:17:57;;;;;;;6.63;3.00;;;4.60;99.90;;;;;;6311599;22;20019;-87
2024/01/21 02:20:24;;;;;;;4.68;2.38;;;4.70;99.90;;;;;;6311240;22;20015;-87
2024/01/21 02:22:55;;;;;;;5.15;2.30;;;4.70;99.90;;;;;;6311067;22;19999;-87
2024/01/21 02:25:21;;;;;;;6.85;2.63;;;4.80;99.90;;;;;;6312103;22;20022;-87
2024/01/21 02:27:47;;;;;;;6.43;2.53;;;4.80;99.90;;;;;;6312322;22;20006;-87
2024/01/21 02:30:14;;;;;;;5.13;1.80;;;4.90;99.90;;;;;;6313632;22;20006;-88
2024/01/21 02:32:39;;;;;;;7.60;2.42;;;4.90;99.90;;;;;;6313101;22;20002;-87
2024/01/21 02:35:08;;;;;;;5.78;2.58;;;4.90;99.90;;;;;;6313179;22;20052;-87
2024/01/21 02:37:33;;;;;;;5.30;2.67;;;5.00;99.90;;;;;;6313864;22;20441;-88
2024/01/21 02:39:59;;;;;;;3.45;2.08;;;5.00;99.90;;;;;;6314839;22;20018;-88
2024/01/21 02:42:26;;;;;;;5.15;2.22;;;5.00;99.90;;;;;;6313962;22;20466;-88
2024/01/21 02:44:54;;;;;;;5.13;1.50;;;5.00;99.90;;;;;;6313249;22;19998;-88
2024/01/21 02:47:19;;;;;;;3.30;2.17;;;5.00;99.90;;;;;;6340536;22;20007;-87
2024/01/21 02:49:45;;;;;;;3.70;1.70;;;5.10;99.90;;;;;;6312870;22;20422;-87
2024/01/21 02:52:12;;;;;;;5.82;2.22;;;5.10;99.90;;;;;;6340402;22;20074;-88
2024/01/21 02:54:38;;;;;;;2.50;1.70;;;5.20;99.90;;;;;;6313205;22;20002;-88
2024/01/21 02:57:04;;;;;;;3.92;1.90;;;5.20;99.90;;;;;;6327218;22;20014;-88
2024/01/21 02:59:29;;;;;;;3.08;2.40;;;5.20;99.90;;;;;;6338559;22;20089;-87
2024/01/21 03:01:57;;;;;;;4.28;2.17;;;5.30;99.90;;;;;;6338917;22;20030;-87
2024/01/21 03:04:22;;;;;;;8.75;1.98;;;5.30;99.90;;;;;;6338706;22;20448;-86
2024/01/21 03:06:49;;;;;;;3.22;1.83;;;5.30;99.90;;;;;;6338600;22;19995;-87
2024/01/21 03:09:15;;;;;;;4.10;2.33;;;5.30;99.90;;;;;;6339028;22;20007;-87
2024/01/21 03:11:40;;;;;;;4.40;2.03;;;5.30;99.90;;;;;;6338837;22;20029;-88
2024/01/21 03:14:07;;;;;;;11.38;2.15;;;5.30;99.90;;;;;;6339003;22;20002;-88
2024/01/21 03:16:33;;;;;;;4.13;1.17;;;5.40;99.90;;;;;;6339291;22;20096;-88
2024/01/21 03:18:58;;;;;;;3.45;2.13;;;5.30;99.90;;;;;;6338657;22;20504;-86
2024/01/21 03:21:24;;;;;;;4.15;1.38;;;5.40;99.90;;;;;;6338453;22;20003;-87
2024/01/21 03:23:50;;;;;;;5.15;2.05;;;5.40;99.90;;;;;;6338487;22;20003;-87
2024/01/21 03:26:15;;;;;;;4.25;1.80;;;5.40;99.90;;;;;;6338714;22;20521;-88
2024/01/21 03:28:41;;;;;;;4.30;1.60;;;5.50;99.90;;;;;;6338615;22;20006;-89
2024/01/21 03:31:07;;;;;;;4.38;1.60;;;5.50;99.90;;;;;;6338518;22;20003;-88
2024/01/21 03:33:32;;;;;;;1.73;1.23;;;5.60;99.90;;;;;;6338652;22;20600;-88
2024/01/21 03:35:58;;;;;;;1.30;0.93;;;5.60;99.90;;;;;;6338268;22;20441;-89
2024/01/21 03:38:24;;;;;;;2.80;1.08;;;5.60;99.90;;;;;;6338461;22;20058;-87
2024/01/21 03:40:49;;;;;;;3.25;1.65;;;5.60;99.90;;;;;;6338593;22;20009;-89
2024/01/21 03:43:17;;;;;;;2.67;1.35;;;5.70;99.90;;;;;;6338443;22;20017;-87
2024/01/21 03:45:43;;;;;;;4.28;1.75;;;5.80;99.90;;;;;;6338747;22;20010;-89
2024/01/21 03:48:09;;;;;;;1.50;1.00;;;5.80;99.90;;;;;;6338458;22;20426;-88
2024/01/21 03:50:35;;;;;;;2.10;1.45;;;5.80;99.90;;;;;;6338560;22;20521;-88
2024/01/21 03:53:00;;;;;;;3.25;1.23;;;5.80;99.90;;;;;;6338844;22;20461;-88
2024/01/21 03:55:26;;;;;;;1.88;1.27;;;5.90;99.90;;;;;;6338964;22;20003;-87
2024/01/21 03:57:52;;;;;;;2.17;1.50;;;5.90;99.90;;;;;;6338526;22;20067;-87
2024/01/21 04:00:18;;;;;;;1.55;1.02;;;5.90;99.90;;;;;;6339381;22;20010;-86
2024/01/21 04:02:43;;;;;;;2.72;1.27;;;5.90;99.90;;;;;;6339026;22;20003;-88
2024/01/21 04:05:09;;;;;;;2.45;1.40;;;5.90;99.90;;;;;;6339418;22;20116;-88
2024/01/21 04:07:35;;;;;;;3.65;1.52;;;5.90;99.90;;;;;;6339957;22;19995;-88
2024/01/21 04:10:01;;;;;;;1.42;1.33;;;5.90;99.90;;;;;;6341049;22;20003;-88
2024/01/21 04:12:27;;;;;;;2.65;1.30;;;6.00;99.90;;;;;;6339179;22;20338;-88
2024/01/21 04:14:52;;;;;;;1.75;1.15;;;6.00;99.90;;;;;;6338419;22;20029;-88
2024/01/21 04:17:21;;;;;;;2.60;1.27;;;6.00;99.90;;;;;;6338538;22;20382;-88
2024/01/21 04:19:47;;;;;;;2.20;1.42;;;6.00;99.90;;;;;;6338160;22;20046;-89
2024/01/21 04:22:13;;;;;;;4.03;1.48;;;6.00;99.90;;;;;;6338349;22;20438;-88
2024/01/21 04:24:38;;;;;;;1.73;0.93;;;6.00;99.90;;;;;;6339036;22;20017;-88
2024/01/21 04:27:04;;;;;;;1.42;1.30;;;6.00;99.90;;;;;;6338360;22;20003;-88
2024/01/21 04:29:30;;;;;;;1.58;0.90;;;6.00;99.90;;;;;;6338295;22;20478;-89
2024/01/21 04:31:56;;;;;;;1.40;1.10;;;6.10;99.90;;;;;;6338517;22;20006;-85
2024/01/21 04:34:22;;;;;;;2.80;1.00;;;6.10;99.90;;;;;;6338322;22;20026;-88
2024/01/21 04:36:48;;;;;;;0.60;0.60;;;6.10;99.90;;;;;;6337635;22;20014;-88
2024/01/21 04:39:19;;;;;;;1.58;1.10;;;6.10;99.90;;;;;;6339761;22;20043;-88
2024/01/21 04:41:45;;;;;;;2.00;0.90;;;6.10;99.90;;;;;;6339843;22;20026;-88
2024/01/21 04:44:10;;;;;;;1.75;0.90;;;6.10;99.90;;;;;;6338394;22;20434;-87
2024/01/21 04:46:36;;;;;;;2.70;1.10;;;6.10;99.90;;;;;;6338270;22;20056;-88
2024/01/21 04:49:02;;;;;;;3.28;1.15;;;6.10;99.90;;;;;;6338764;22;20007;-89
2024/01/21 04:51:28;;;;;;;2.25;1.23;;;6.10;99.90;;;;;;6338383;22;20432;-89
2024/01/21 04:53:57;;;;;;;2.65;1.10;;;6.10;99.90;;;;;;6338780;22;20011;-89
2024/01/21 04:56:24;;;;;;;2.63;1.23;;;6.10;99.90;;;;;;6338049;22;20086;-89
2024/01/21 04:58:51;;;;;;;2.58;1.30;;;6.20;99.90;;;;;;6338399;22;20011;-87
2024/01/21 05:01:17;;;;;;;4.15;1.30;;;6.20;99.90;;;;;;6338414;22;20358;-87
2024/01/21 05:03:42;;;;;;;2.40;1.40;;;6.30;99.90;;;;;;6337921;22;20093;-87
2024/01/21 05:06:08;;;;;;;4.93;1.20;;;6.30;99.90;;;;;;6338098;22;20003;-88
2024/01/21 05:08:34;;;;;;;9.18;1.50;;;6.30;99.90;;;;;;6337661;22;20014;-88
2024/01/21 05:11:00;;;;;;;2.60;1.10;;;6.30;99.90;;;;;;6337817;22;20011;-87
2024/01/21 05:13:26;;;;;;;1.58;0.93;;;6.30;99.90;;;;;;6337803;22;20006;-87
2024/01/21 05:15:53;;;;;;;6.88;3.00;;;6.40;99.90;;;;;;6337442;22;20070;-87
2024/01/21 05:18:20;;;;;;;4.45;1.50;;;6.40;99.90;;;;;;6338116;22;20007;-87
2024/01/21 05:20:46;;;;;;;2.53;1.27;;;6.40;99.90;;;;;;6337810;22;20010;-87
2024/01/21 05:23:12;;;;;;;6.78;2.55;;;6.50;99.90;;;;;;6311978;22;20006;-89
2024/01/21 05:25:38;;;;;;;5.57;1.55;;;6.50;99.90;;;;;;6337346;22;20011;-87
2024/01/21 05:28:04;;;;;;;2.17;0.98;;;6.60;99.90;;;;;;6338018;22;20433;-86
2024/01/21 05:30:29;;;;;;;10.20;2.20;;;6.60;99.90;;;;;;6337581;22;20017;-87
2024/01/21 05:32:55;;;;;;;4.90;1.92;;;6.60;99.90;;;;;;6337612;22;20061;-88
2024/01/21 05:35:22;;;;;;;3.03;1.13;;;6.60;99.90;;;;;;6337349;22;20047;-86
2024/01/21 05:37:49;;;;;;;5.05;1.85;;;6.60;99.90;;;;;;6337562;22;20037;-88
2024/01/21 05:40:14;;;;;;;3.72;1.92;;;6.70;99.90;;;;;;6337025;22;20033;-89
2024/01/21 05:42:40;;;;;;;4.93;1.40;;;6.70;99.90;;;;;;6337841;22;20003;-89
2024/01/21 05:45:07;;;;;;;8.02;1.80;;;6.70;99.90;;;;;;6311268;22;20049;-89
2024/01/21 05:47:33;;;;;;;2.67;1.23;;;6.80;99.90;;;;;;6337594;22;20003;-89
2024/01/21 05:49:59;;;;;;;18.40;10.68;;;6.80;99.90;;;;;;6337581;22;19995;-87
2024/01/21 05:52:24;;;;;;;15.65;4.43;;;6.80;99.90;;;;;;6337558;22;20007;-88
2024/01/21 05:54:50;;;;;;;4.25;1.48;;;6.80;99.90;;;;;;6337362;22;20333;-88
2024/01/21 05:57:16;;;;;;;7.18;1.90;;;6.90;99.90;;;;;;6337322;22;20019;-88
2024/01/21 05:59:42;;;;;;;5.30;2.22;;;6.90;99.90;;;;;;6337092;22;20015;-89
2024/01/21 06:02:10;;;;;;;9.45;2.28;;;6.90;99.90;;;;;;6338045;22;20082;-88
2024/01/21 06:04:36;;;;;;;6.45;2.05;;;6.90;99.90;;;;;;6338120;22;20442;-88
2024/01/21 06:07:02;;;;;;;7.47;1.70;;;6.90;99.90;;;;;;6338713;22;20007;-88
2024/01/21 06:09:28;;;;;;;8.40;2.03;;;7.00;99.90;;;;;;6337322;22;20375;-88
2024/01/21 06:11:54;;;;;;;8.52;1.45;;;7.00;99.90;;;;;;6337539;22;20003;-89
2024/01/21 06:14:19;;;;;;;6.88;1.40;;;7.00;99.90;;;;;;6337596;22;20007;-88
2024/01/21 06:16:45;;;;;;;8.15;2.05;;;7.00;99.90;;;;;;6311139;22;20014;-88
2024/01/21 06:19:11;;;;;;;4.43;1.38;;;7.00;99.90;;;;;;6337214;22;20015;-88
2024/01/21 06:21:44;;;;;;;13.10;2.17;;;7.10;99.90;;;;;;6336499;22;19998;-89
2024/01/21 06:24:13;;;;;;;10.25;4.65;;;7.10;99.90;;;;;;6336937;22;20438;-88
2024/01/21 06:26:40;;;;;;;8.23;1.48;;;7.20;99.90;;;;;;6336775;22;20003;-86
2024/01/21 06:29:07;;;;;;;11.10;1.40;;;7.10;99.90;;;;;;6336884;22;20010;-86
2024/01/21 06:31:33;;;;;;;3.90;1.00;;;7.20;99.90;;;;;;6336860;22;20422;-87
2024/01/21 06:33:59;;;;;;;4.43;0.88;;;7.20;99.90;;;;;;6336491;22;20045;-87
2024/01/21 06:36:25;;;;;;;6.70;1.38;;;7.20;99.90;;;;;;6337285;22;20029;-86
2024/01/21 06:38:51;;;;;;;6.80;1.38;;;7.20;99.90;;;;;;6336696;22;20017;-87
2024/01/21 06:41:17;;;;;;;8.70;1.80;;;7.30;99.90;;;;;;6336756;22;20007;-89
2024/01/21 06:43:43;;;;;;;7.22;1.60;;;7.30;99.90;;;;;;6336990;22;20538;-87
2024/01/21 06:46:09;;;;;;;8.65;1.70;;;7.30;99.90;;;;;;6337019;22;20090;-87
2024/01/21 06:48:35;;;;;;;15.23;2.63;;;7.30;99.90;;;;;;6337357;22;20449;-87
2024/01/21 06:51:08;;;;;;;10.25;1.80;;;7.30;99.90;;;;;;6337003;22;20010;-87
2024/01/21 06:53:34;;;;;;;7.80;1.50;;;7.30;99.90;;;;;;6338546;22;20009;-88
2024/01/21 06:56:04;;;;;;;4.32;1.08;;;7.30;99.90;;;;;;6336800;22;20035;-89
2024/01/21 06:58:30;;;;;;;;;;;7.30;99.90;;;;;;6337057;22;20342;-87
2024/01/21 07:00:56;;;;;;;10.43;1.45;;;7.30;99.90;;;;;;6336929;22;19928;-86
2024/01/21 07:03:21;;;;;;;5.85;1.33;;;7.40;99.90;;;;;;6336981;22;20337;-88
2024/01/21 07:05:47;;;;;;;6.28;1.60;;;7.40;99.90;;;;;;6336806;22;20003;-88
2024/01/21 07:08:13;;;;;;;8.77;1.20;;;7.40;99.90;;;;;;6336850;22;20010;-88
2024/01/21 07:10:38;;;;;;;3.50;1.00;;;7.40;99.90;;;;;;6336375;22;20475;-87
2024/01/21 07:13:04;;;;;;;8.93;2.03;;;7.50;99.90;;;;;;6337098;22;19999;-87
2024/01/21 07:15:30;;;;;;;6.10;1.75;;;7.50;99.90;;;;;;6338219;22;20011;-87
2024/01/21 07:17:56;;;;;;;8.63;1.90;;;7.40;99.90;;;;;;6338433;22;20338;-87
2024/01/21 07:20:21;;;;;;;11.93;1.25;;;7.50;99.90;;;;;;6338545;22;20023;-87
2024/01/21 07:22:47;;;;;;;3.00;0.95;;;7.50;99.90;;;;;;6338466;22;20422;-87
2024/01/21 07:25:14;;;;;;;7.32;1.52;;;7.50;99.90;;;;;;6338557;22;20013;-87
2024/01/21 07:27:40;;;;;;;8.45;2.28;;;7.50;99.90;;;;;;6338106;22;20002;-87
2024/01/21 07:30:06;;;;;;;9.15;1.63;;;7.50;99.90;;;;;;6338465;22;19999;-87
2024/01/21 07:32:32;;;;;;;11.23;1.60;;;7.40;99.90;;;;;;6338061;22;20014;-86
2024/01/21 07:34:58;;;;;;;8.73;1.70;;;7.40;99.90;;;;;;6338469;22;20026;-87
2024/01/21 07:37:23;;;;;;;8.30;1.88;;;7.40;99.90;;;;;;6338306;22;20009;-87
2024/01/21 07:39:49;;;;;;;10.70;1.52;;;7.40;99.90;;;;;;6338591;22;20010;-88
2024/01/21 07:42:15;;;;;;;12.07;1.73;;;7.30;99.90;;;;;;6338496;22;19999;-87
2024/01/21 07:44:42;;;;;;;7.63;1.67;;;7.30;99.90;;;;;;6338550;22;20003;-88
2024/01/21 07:47:08;;;;;;;7.50;1.70;;;7.30;99.90;;;;;;6339275;22;20019;-88
2024/01/21 07:49:33;;;;;;;10.07;1.65;;;7.20;99.90;;;;;;6339825;22;20017;-88
2024/01/21 07:51:59;;;;;;;11.82;1.60;;;7.20;99.90;;;;;;6340524;22;20007;-89
2024/01/21 07:54:25;;;;;;;12.98;1.92;;;7.20;99.90;;;;;;6339446;22;20033;-87
2024/01/21 07:56:50;;;;;;;5.65;1.60;;;7.30;99.90;;;;;;6340472;22;20070;-88
2024/01/21 07:59:16;;;;;;;7.38;1.67;;;7.20;99.90;;;;;;6339196;22;20085;-86
2024/01/21 08:01:42;;;;;;;12.60;1.77;;;7.20;99.90;;;;;;6338208;22;20048;-86
2024/01/21 08:04:07;;;;;;;14.45;1.25;;;7.30;99.90;;;;;;6338475;22;20010;-88
2024/01/21 08:06:33;;;;;;;11.18;2.33;;;7.30;99.90;;;;;;6338109;22;20006;-87
2024/01/21 08:08:59;;;;;;;9.70;1.60;;;7.30;99.90;;;;;;6338006;22;20422;-86
2024/01/21 08:11:24;;;;;;;11.10;2.72;;;7.20;99.90;;;;;;6338002;22;20116;-85
2024/01/21 08:13:50;;;;;;;15.93;2.35;;;7.20;99.90;;;;;;6339473;22;19999;-88
2024/01/21 08:16:16;;;;;;;8.75;1.20;;;7.20;99.90;;;;;;6338775;22;20003;-88
2024/01/21 08:18:41;;;;;;;14.02;1.40;;;7.30;99.90;;;;;;6336935;22;20010;-88
2024/01/21 08:21:07;;;;;;;6.95;1.23;;;7.30;99.90;;;;;;6337567;22;20007;-87
2024/01/21 08:23:35;;;;;;;14.57;1.80;;;7.30;99.90;;;;;;6337824;22;20086;-88
2024/01/21 08:26:04;;;;;;;13.30;2.40;;;7.40;99.90;;;;;;6336879;22;20007;-87
2024/01/21 08:28:30;;;;;;;11.68;1.42;;;7.40;99.90;;;;;;6337719;22;20003;-88
2024/01/21 08:30:55;;;;;;;14.43;2.00;;;7.50;99.90;;;;;;6337398;22;20071;-88
2024/01/21 08:33:21;;;;;;;14.00;1.48;;;7.50;99.90;;;;;;6337327;22;19999;-88
2024/01/21 08:35:47;;;;;;;13.77;2.30;;;7.50;99.90;;;;;;6337602;22;19999;-88
2024/01/21 08:38:12;;;;;;;8.77;1.55;;;7.50;99.90;;;;;;6337329;22;20007;-87
2024/01/21 08:40:38;;;;;;;11.45;1.95;;;7.50;99.90;;;;;;6337650;22;20007;-87
2024/01/21 08:43:04;;;;;;;15.98;2.35;;;7.50;99.90;;;;;;6337517;22;20437;-90
2024/01/21 08:45:30;;;;;;;14.43;3.60;;;7.50;99.90;;;;;;6337960;22;20014;-89
2024/01/21 08:47:55;;;;;;;19.35;2.92;;;7.50;99.90;;;;;;6339134;22;20006;-89
2024/01/21 08:50:21;;;;;;;17.77;3.47;;;7.50;99.90;;;;;;6337266;22;20010;-88
2024/01/21 08:52:47;;;;;;;17.95;2.90;;;7.50;99.90;;;;;;6335829;22;20085;-86
2024/01/21 08:55:13;;;;;;;10.38;2.05;;;7.50;99.90;;;;;;6337295;22;20092;-87
2024/01/21 08:57:38;;;;;;;14.70;2.33;;;7.40;99.90;;;;;;6337152;22;20022;-89
2024/01/21 09:00:05;;;;;;;22.02;3.25;;;7.40;99.90;;;;;;6337354;22;20463;-87
2024/01/21 09:02:31;;;;;;;11.57;2.25;;;7.40;99.90;;;;;;6336937;22;20005;-88
2024/01/21 09:04:57;;;;;;;13.43;2.10;;;7.50;99.90;;;;;;6337624;22;20068;-88
2024/01/21 09:07:22;;;;;;;15.38;2.53;;;7.50;99.90;;;;;;6337416;22;20003;-88
2024/01/21 09:09:48;;;;;;;16.00;2.60;;;7.50;99.90;;;;;;6337882;22;20119;-88
2024/01/21 09:12:15;;;;;;;16.98;1.90;;;7.60;99.90;;;;;;6337318;22;20315;-86
2024/01/21 09:14:42;;;;;;;11.23;1.90;;;7.60;99.90;;;;;;6339624;22;20013;-88
2024/01/21 09:17:07;;;;;;;14.70;2.05;;;7.70;99.90;;;;;;6337499;22;19998;-89
2024/01/21 09:19:34;;;;;;;10.00;2.22;;;7.80;99.90;;;;;;6335670;22;20446;-89
2024/01/21 09:22:00;;;;;;;10.95;1.38;;;7.80;99.90;;;;;;6309162;22;20018;-88
2024/01/21 09:24:26;;;;;;;12.85;2.50;;;7.90;99.90;;;;;;6334917;22;20003;-88
2024/01/21 09:26:51;;;;;;;14.70;1.95;;;8.00;99.90;;;;;;6336633;22;20007;-86
2024/01/21 09:29:17;;;;;;;17.88;2.03;;;8.00;99.90;;;;;;6309662;22;20069;-88
2024/01/21 09:31:51;;;;;;;15.50;2.47;;;8.10;99.90;;;;;;6338629;22;20002;-86
2024/01/21 09:34:17;;;;;;;20.17;4.50;;;8.10;99.90;;;;;;6339899;22;20067;-87
2024/01/21 09:36:43;;;;;;;26.38;5.75;;;8.10;99.90;;;;;;6338499;22;19999;-87
2024/01/21 09:39:10;;;;;;;10.10;2.42;;;8.20;99.90;;;;;;6337886;22;20015;-87
2024/01/21 09:41:55;;;;;;;16.17;2.83;;;8.20;99.90;;;;;;6337657;22;20049;-87
2024/01/21 09:44:26;;;;;;;18.45;3.33;;;8.30;99.90;;;;;;6340039;22;20369;-85
2024/01/21 09:46:58;;;;;;;18.33;4.13;;;8.40;99.90;;;;;;6337406;22;20002;-88
2024/01/21 09:49:25;;;;;;;21.67;2.78;;;8.40;99.90;;;;;;6337270;22;20052;-87
2024/01/21 09:51:51;;;;;;;17.40;4.28;;;8.50;99.90;;;;;;6337035;22;20095;-87
2024/01/21 09:54:18;;;;;;;22.40;4.30;;;8.50;99.90;;;;;;6337483;22;20042;-87
2024/01/21 09:56:44;;;;;;;29.60;3.55;;;8.50;99.90;;;;;;6337091;22;20010;-87
2024/01/21 09:59:11;;;;;;;22.60;4.97;;;8.50;99.90;;;;;;6336876;22;20022;-87
2024/01/21 10:01:38;;;;;;;15.77;2.30;;;8.50;99.90;;;;;;6337525;22;20082;-87
2024/01/21 10:04:04;;;;;;;15.13;2.88;;;8.60;99.90;;;;;;6336870;22;20010;-87
2024/01/21 10:06:30;;;;;;;13.73;2.15;;;8.70;99.90;;;;;;6336746;22;20002;-89
2024/01/21 10:09:20;;;;;;;16.38;2.28;;;8.80;99.90;;;;;;6338037;22;20005;-88
2024/01/21 10:11:57;;;;;;;14.77;2.35;;;8.90;99.90;;;;;;6337994;22;19999;-87
2024/01/21 10:14:28;;;;;;;12.52;2.05;;;8.90;99.90;;;;;;6336999;22;20003;-88
2024/01/21 10:16:56;;;;;;;17.30;1.77;;;9.00;99.90;;;;;;6337223;22;20013;-88
2024/01/21 10:19:31;;;;;;;14.68;1.95;;;9.00;99.90;;;;;;6336418;22;20053;-87
2024/01/21 10:22:10;;;;;;;14.88;2.45;;;9.00;99.90;;;;;;6336261;22;20003;-87
2024/01/21 10:24:48;;;;;;;23.17;2.08;;;8.90;99.90;;;;;;6336522;22;20007;-87
2024/01/21 10:27:18;;;;;;;20.60;2.30;;;8.90;99.90;;;;;;6336959;22;20026;-87
2024/01/21 10:29:45;;;;;;;13.25;2.10;;;8.90;99.90;;;;;;6336690;22;20022;-89
2024/01/21 10:32:12;;;;;;;11.93;2.60;;;8.90;99.90;;;;;;6336633;22;20426;-88
2024/01/21 10:34:49;;;;;;;15.93;2.58;;;8.80;99.90;;;;;;6338468;22;20007;-88
2024/01/21 10:37:17;;;;;;;22.83;2.38;;;8.80;99.90;;;;;;6336730;22;19999;-87
2024/01/21 10:39:47;;;;;;;29.45;4.82;;;8.80;99.90;;;;;;6335600;22;20018;-87
2024/01/21 10:42:17;;;;;;;17.30;2.30;;;8.80;99.90;;;;;;6336013;22;20003;-88
2024/01/21 10:44:43;;;;;;;18.25;2.58;;;8.80;99.90;;;;;;6333495;22;20380;-87
2024/01/21 10:47:09;;;;;;;13.93;2.35;;;8.80;99.90;;;;;;6333919;22;20003;-89
2024/01/21 10:49:38;;;;;;;18.30;3.63;;;8.80;99.90;;;;;;6334655;22;20064;-89
2024/01/21 10:52:05;;;;;;;21.77;2.42;;;8.80;99.90;;;;;;6337810;22;20009;-88
2024/01/21 10:54:32;;;;;;;24.70;3.78;;;8.80;99.90;;;;;;6337910;22;20003;-88
2024/01/21 10:56:59;;;;;;;20.50;4.03;;;8.90;99.90;;;;;;6338647;22;20062;-87
2024/01/21 10:59:24;;;;;;;17.25;2.28;;;9.00;99.90;;;;;;6338209;22;20015;-87
2024/01/21 11:01:51;;;;;;;24.73;3.72;;;9.00;99.90;;;;;;6338008;22;20006;-87
2024/01/21 11:04:16;;;;;;;21.70;4.57;;;9.00;99.90;;;;;;6338152;22;20026;-87
2024/01/21 11:06:48;;;;;;;27.27;3.17;;;9.00;99.90;;;;;;6338137;22;20346;-87
2024/01/21 11:09:25;;;;;;;17.13;3.85;;;9.10;99.90;;;;;;6339905;22;20003;-88
2024/01/21 11:11:52;;;;;;;18.35;2.85;;;9.20;99.90;;;;;;6338185;22;19999;-87
2024/01/21 11:14:42;;;;;;;19.50;3.20;;;9.20;99.90;;;;;;6337987;22;20018;-87
2024/01/21 11:17:10;;;;;;;23.77;3.33;;;9.30;99.90;;;;;;6338113;22;20003;-88
2024/01/21 11:19:48;;;;;;;22.27;2.65;;;9.30;99.90;;;;;;6337638;22;20057;-87
2024/01/21 11:22:15;;;;;;;14.25;3.15;;;9.30;99.90;;;;;;6337855;22;20011;-87
2024/01/21 11:24:41;;;;;;;23.30;3.95;;;9.20;99.90;;;;;;6336960;22;20045;-87
2024/01/21 11:27:18;;;;;;;25.45;3.38;;;9.20;99.90;;;;;;6337337;22;19998;-86
2024/01/21 11:29:44;;;;;;;29.20;5.85;;;9.20;99.90;;;;;;6338018;22;20392;-87
2024/01/21 11:32:11;;;;;;;20.08;3.63;;;9.20;99.90;;;;;;6339668;22;20078;-87
2024/01/21 11:34:40;;;;;;;20.48;4.28;;;9.20;99.90;;;;;;6337469;22;20003;-86
2024/01/21 11:37:13;;;;;;;26.95;4.80;;;9.20;99.90;;;;;;6337728;22;20002;-86
2024/01/21 11:39:40;;;;;;;22.88;4.38;;;9.20;99.90;;;;;;6338286;22;20378;-87
2024/01/21 11:42:07;;;;;;;17.30;3.45;;;9.20;99.90;;;;;;6338802;22;20085;-89
2024/01/21 11:44:34;;;;;;;17.55;3.17;;;9.20;99.90;;;;;;6337472;22;20010;-89
2024/01/21 11:47:01;;;;;;;19.67;2.63;;;9.20;99.90;;;;;;6337846;22;20099;-87
2024/01/21 11:49:28;;;;;;;17.38;2.95;;;9.20;99.90;;;;;;6337246;22;20010;-88
2024/01/21 11:51:53;;;;;;;31.15;5.20;;;9.20;99.90;;;;;;6337440;22;20023;-88
2024/01/21 11:54:22;;;;;;;21.15;3.55;;;9.20;99.90;;;;;;6337199;22;20458;-88
2024/01/21 11:56:48;;;;;;;16.45;2.10;;;9.30;99.90;;;;;;6337030;22;20430;-88
2024/01/21 11:59:14;;;;;;;30.48;3.47;;;9.30;99.90;;;;;;6337099;22;20438;-87
2024/01/21 12:01:41;;;;;;;15.80;3.25;;;9.30;99.90;;;;;;6336317;22;20033;-88
2024/01/21 12:04:08;;;;;;;36.55;4.18;;;9.40;99.90;;;;;;6337219;22;20002;-88
2024/01/21 12:06:43;;;;;;;12.30;2.13;;;9.50;99.90;;;;;;6337266;22;20006;-88
2024/01/21 12:09:11;;;;;;;20.80;3.92;;;9.60;99.90;;;;;;6337539;22;20059;-88
2024/01/21 12:11:38;;;;;;;18.17;2.88;;;9.70;99.90;;;;;;6337432;22;20003;-88
2024/01/21 12:14:06;;;;;;;20.27;3.20;;;9.90;99.90;;;;;;6336961;22;20041;-86
2024/01/21 12:16:33;;;;;;;12.68;2.70;;;10.00;99.90;;;;;;6339200;22;20007;-88
2024/01/21 12:19:00;;;;;;;23.35;3.97;;;10.10;99.90;;;;;;6337277;22;20399;-88
2024/01/21 12:21:30;;;;;;;25.52;2.97;;;10.20;99.90;;;;;;6338747;22;20067;-88
2024/01/21 12:23:57;;;;;;;12.45;2.42;;;10.30;99.90;;;;;;6337902;22;20005;-89
2024/01/21 12:26:24;;;;;;;17.90;3.67;;;10.40;99.90;;;;;;6336756;22;20007;-87
2024/01/21 12:29:05;;;;;;;14.20;2.95;;;10.50;99.90;;;;;;6338042;22;20033;-88
2024/01/21 12:31:38;;;;;;;29.75;4.82;;;10.50;99.90;;;;;;6337936;22;20002;-87
2024/01/21 12:34:06;;;;;;;16.50;3.58;;;10.60;99.90;;;;;;6338086;22;20011;-88
2024/01/21 12:36:33;;;;;;;18.50;2.78;;;10.80;99.90;;;;;;6338250;22;20010;-88
2024/01/21 12:39:00;;;;;;;12.18;2.08;;;10.90;99.90;;;;;;6336400;22;20199;-88
2024/01/21 12:41:26;;;;;;;22.38;2.85;;;11.10;99.90;;;;;;6338707;22;19998;-88
2024/01/21 12:43:52;;;;;;;19.70;3.00;;;11.20;99.90;;;;;;6337632;22;20094;-88
2024/01/21 12:46:21;;;;;;;23.98;1.80;;;11.10;99.90;;;;;;6336224;22;20078;-88
2024/01/21 12:48:48;;;;;;;22.77;3.20;;;11.10;99.90;;;;;;6336145;22;20034;-87
2024/01/21 12:51:18;;;;;;;20.52;3.40;;;11.10;99.90;;;;;;6337858;22;20081;-88